Terminal Aerodrome Forecast
Issued by NWS

Home | Current Version | Previous Version | Text Only | Print | Product List | Glossary On
Versions: 1 2 3 4 5 6 7 8 9 10 11 12 13 14 15 16 17 18 19
141
FTUS43 KGRB 280537
TAFMTW
TAF
KMTW 280537Z 2806/2906 26003KT 4SM BR BKN002
      TEMPO 2806/2809 1SM BR SCT002 BKN020
     FM280900 27005KT 3SM BR OVC002
      TEMPO 2809/2813 1SM BR
     FM281300 29004KT P6SM SCT004 BKN020
     FM281600 24006KT P6SM SCT025
     FM282000 16008KT P6SM SKC=

USA.gov is the U.S. government's official web portal to all federal, state and local government web resources and services.